Terminal Aerodrome Forecast
Issued by NWS Austin/San Antonio, TX

Home | Current Version | Previous Version | Text Only | Print | Product List | Glossary On
Versions: 1 2 3 4 5 6 7 8 9 10 11 12 13 14 15
619
FTUS44 KEWX 252347
TAFAUS
TAF
KAUS 252347Z 2600/2706 05007KT P6SM FEW200
     FM261400 13004KT 5SM BR OVC025
     FM261700 16007KT 3SM BR VCSH OVC015
     FM262100 17007KT 5SM BR VCSH OVC025
     FM270200 17004KT 3SM BR OVC010=

USA.gov is the U.S. government's official web portal to all federal, state and local government web resources and services.